sensor_id;sensor_type;location;lat;lon;timestamp;P1;durP1;ratioP1;P2;durP2;ratioP2
69197;SDS011;56311;50.298;8.514;2023-07-13T00:00:01;7.5;;;1.2;;
69197;SDS011;56311;50.298;8.514;2023-07-13T00:02:00;3.8;;;0.9;;
69197;SDS011;56311;50.298;8.514;2023-07-13T00:04:00;5.5;;;1.2;;
69197;SDS011;56311;50.298;8.514;2023-07-13T00:06:00;5.9;;;1.1;;
69197;SDS011;56311;50.298;8.514;2023-07-13T00:08:00;4.5;;;1.0;;
69197;SDS011;56311;50.298;8.514;2023-07-13T00:10:00;4.3;;;0.8;;
69197;SDS011;56311;50.298;8.514;2023-07-13T00:12:00;3.3;;;0.9;;
69197;SDS011;56311;50.298;8.514;2023-07-13T00:14:00;4.7;;;1.1;;
69197;SDS011;56311;50.298;8.514;2023-07-13T00:16:00;5.6;;;1.0;;
69197;SDS011;56311;50.298;8.514;2023-07-13T00:18:00;5.5;;;0.9;;
69197;SDS011;56311;50.298;8.514;2023-07-13T00:20:00;5.4;;;1.2;;
69197;SDS011;56311;50.298;8.514;2023-07-13T00:22:00;5.9;;;1.3;;
69197;SDS011;56311;50.298;8.514;2023-07-13T00:24:00;5.6;;;1.0;;
69197;SDS011;56311;50.298;8.514;2023-07-13T00:26:00;5.5;;;1.3;;
69197;SDS011;56311;50.298;8.514;2023-07-13T00:28:00;5.2;;;1.1;;
69197;SDS011;56311;50.298;8.514;2023-07-13T00:30:00;4.5;;;0.9;;
69197;SDS011;56311;50.298;8.514;2023-07-13T00:32:01;6.3;;;1.1;;
69197;SDS011;56311;50.298;8.514;2023-07-13T00:34:00;3.9;;;0.9;;
69197;SDS011;56311;50.298;8.514;2023-07-13T00:36:00;5.1;;;1.1;;
69197;SDS011;56311;50.298;8.514;2023-07-13T00:38:00;6.5;;;1.0;;
69197;SDS011;56311;50.298;8.514;2023-07-13T00:40:00;4.9;;;1.0;;
69197;SDS011;56311;50.298;8.514;2023-07-13T00:42:00;5.1;;;1.5;;
69197;SDS011;56311;50.298;8.514;2023-07-13T00:44:00;6.7;;;1.4;;
69197;SDS011;56311;50.298;8.514;2023-07-13T00:48:00;5.6;;;1.4;;
69197;SDS011;56311;50.298;8.514;2023-07-13T00:50:00;4.2;;;1.0;;
69197;SDS011;56311;50.298;8.514;2023-07-13T00:52:02;4.0;;;1.0;;
69197;SDS011;56311;50.298;8.514;2023-07-13T00:54:02;52.1;;;43.8;;
69197;SDS011;56311;50.298;8.514;2023-07-13T00:56:00;64.4;;;53.2;;
69197;SDS011;56311;50.298;8.514;2023-07-13T00:58:00;62.6;;;55.8;;
69197;SDS011;56311;50.298;8.514;2023-07-13T01:00:01;5.4;;;1.8;;
69197;SDS011;56311;50.298;8.514;2023-07-13T01:02:00;6.3;;;1.1;;
69197;SDS011;56311;50.298;8.514;2023-07-13T01:04:00;6.2;;;1.2;;
69197;SDS011;56311;50.298;8.514;2023-07-13T01:06:00;4.6;;;0.9;;
69197;SDS011;56311;50.298;8.514;2023-07-13T01:08:00;6.4;;;1.0;;
69197;SDS011;56311;50.298;8.514;2023-07-13T01:10:00;8.2;;;0.9;;
69197;SDS011;56311;50.298;8.514;2023-07-13T01:12:00;5.8;;;1.1;;
69197;SDS011;56311;50.298;8.514;2023-07-13T01:14:00;4.3;;;1.0;;
69197;SDS011;56311;50.298;8.514;2023-07-13T01:16:02;6.6;;;1.1;;
69197;SDS011;56311;50.298;8.514;2023-07-13T01:18:00;8.3;;;1.3;;
69197;SDS011;56311;50.298;8.514;2023-07-13T01:20:00;6.3;;;1.1;;
69197;SDS011;56311;50.298;8.514;2023-07-13T01:22:00;7.4;;;1.2;;
69197;SDS011;56311;50.298;8.514;2023-07-13T01:24:00;5.2;;;1.0;;
69197;SDS011;56311;50.298;8.514;2023-07-13T01:26:00;7.4;;;1.0;;
69197;SDS011;56311;50.298;8.514;2023-07-13T01:28:00;7.6;;;1.1;;
69197;SDS011;56311;50.298;8.514;2023-07-13T01:30:00;6.3;;;1.1;;
69197;SDS011;56311;50.298;8.514;2023-07-13T01:32:00;6.4;;;0.9;;
69197;SDS011;56311;50.298;8.514;2023-07-13T01:34:00;4.7;;;1.1;;
69197;SDS011;56311;50.298;8.514;2023-07-13T01:36:00;6.0;;;1.3;;
69197;SDS011;56311;50.298;8.514;2023-07-13T01:38:00;6.5;;;1.0;;
69197;SDS011;56311;50.298;8.514;2023-07-13T01:40:00;6.6;;;1.3;;
69197;SDS011;56311;50.298;8.514;2023-07-13T01:42:00;4.7;;;1.1;;
69197;SDS011;56311;50.298;8.514;2023-07-13T01:44:00;7.6;;;1.1;;
69197;SDS011;56311;50.298;8.514;2023-07-13T01:46:00;5.8;;;1.1;;
69197;SDS011;56311;50.298;8.514;2023-07-13T01:48:00;5.2;;;1.1;;
69197;SDS011;56311;50.298;8.514;2023-07-13T01:50:00;4.0;;;1.0;;
69197;SDS011;56311;50.298;8.514;2023-07-13T01:52:00;6.9;;;1.1;;
69197;SDS011;56311;50.298;8.514;2023-07-13T01:54:00;6.1;;;1.0;;
69197;SDS011;56311;50.298;8.514;2023-07-13T01:56:00;4.2;;;0.9;;
69197;SDS011;56311;50.298;8.514;2023-07-13T01:58:00;5.3;;;1.0;;
69197;SDS011;56311;50.298;8.514;2023-07-13T02:00:02;5.9;;;1.1;;
69197;SDS011;56311;50.298;8.514;2023-07-13T02:02:00;5.3;;;1.0;;
69197;SDS011;56311;50.298;8.514;2023-07-13T02:04:00;5.1;;;1.0;;
69197;SDS011;56311;50.298;8.514;2023-07-13T02:06:00;5.1;;;1.1;;
69197;SDS011;56311;50.298;8.514;2023-07-13T02:08:00;4.1;;;0.9;;
69197;SDS011;56311;50.298;8.514;2023-07-13T02:10:00;7.5;;;1.1;;
69197;SDS011;56311;50.298;8.514;2023-07-13T02:12:00;7.4;;;1.2;;
69197;SDS011;56311;50.298;8.514;2023-07-13T02:14:00;6.5;;;0.9;;
69197;SDS011;56311;50.298;8.514;2023-07-13T02:16:01;5.8;;;1.2;;
69197;SDS011;56311;50.298;8.514;2023-07-13T02:18:00;5.6;;;1.1;;
69197;SDS011;56311;50.298;8.514;2023-07-13T02:20:00;7.2;;;1.1;;
69197;SDS011;56311;50.298;8.514;2023-07-13T02:22:00;6.8;;;1.2;;
69197;SDS011;56311;50.298;8.514;2023-07-13T02:24:01;5.6;;;1.3;;
69197;SDS011;56311;50.298;8.514;2023-07-13T02:26:00;5.3;;;1.0;;
69197;SDS011;56311;50.298;8.514;2023-07-13T02:28:00;5.2;;;1.0;;
69197;SDS011;56311;50.298;8.514;2023-07-13T02:30:00;5.6;;;1.2;;
69197;SDS011;56311;50.298;8.514;2023-07-13T02:32:00;6.9;;;0.9;;
69197;SDS011;56311;50.298;8.514;2023-07-13T02:34:00;5.7;;;1.1;;
69197;SDS011;56311;50.298;8.514;2023-07-13T02:36:00;8.6;;;1.1;;
69197;SDS011;56311;50.298;8.514;2023-07-13T02:38:00;6.2;;;1.1;;
69197;SDS011;56311;50.298;8.514;2023-07-13T02:40:00;6.5;;;1.1;;
69197;SDS011;56311;50.298;8.514;2023-07-13T02:42:00;6.5;;;1.0;;
69197;SDS011;56311;50.298;8.514;2023-07-13T02:44:00;8.4;;;1.4;;
69197;SDS011;56311;50.298;8.514;2023-07-13T02:46:00;6.8;;;1.1;;
69197;SDS011;56311;50.298;8.514;2023-07-13T02:48:00;7.8;;;0.9;;
69197;SDS011;56311;50.298;8.514;2023-07-13T02:50:00;5.2;;;1.1;;
69197;SDS011;56311;50.298;8.514;2023-07-13T02:52:00;5.7;;;1.0;;
69197;SDS011;56311;50.298;8.514;2023-07-13T02:54:00;5.5;;;1.1;;
69197;SDS011;56311;50.298;8.514;2023-07-13T02:56:00;6.1;;;1.1;;
69197;SDS011;56311;50.298;8.514;2023-07-13T02:58:00;4.9;;;0.9;;
69197;SDS011;56311;50.298;8.514;2023-07-13T03:00:00;6.6;;;1.5;;
69197;SDS011;56311;50.298;8.514;2023-07-13T03:02:00;7.1;;;1.0;;
69197;SDS011;56311;50.298;8.514;2023-07-13T03:04:00;5.3;;;0.9;;
69197;SDS011;56311;50.298;8.514;2023-07-13T03:06:01;6.4;;;1.0;;
69197;SDS011;56311;50.298;8.514;2023-07-13T03:08:00;5.9;;;1.0;;
69197;SDS011;56311;50.298;8.514;2023-07-13T03:10:00;6.5;;;1.1;;
69197;SDS011;56311;50.298;8.514;2023-07-13T03:12:01;3.9;;;0.9;;
69197;SDS011;56311;50.298;8.514;2023-07-13T03:14:00;5.4;;;1.1;;
69197;SDS011;56311;50.298;8.514;2023-07-13T03:16:00;5.5;;;1.1;;
69197;SDS011;56311;50.298;8.514;2023-07-13T03:18:00;6.7;;;1.0;;
69197;SDS011;56311;50.298;8.514;2023-07-13T03:20:00;5.8;;;0.9;;
69197;SDS011;56311;50.298;8.514;2023-07-13T03:22:00;4.7;;;0.8;;
69197;SDS011;56311;50.298;8.514;2023-07-13T03:24:00;6.0;;;1.0;;
69197;SDS011;56311;50.298;8.514;2023-07-13T03:26:01;4.2;;;1.0;;
69197;SDS011;56311;50.298;8.514;2023-07-13T03:28:00;6.8;;;1.1;;
69197;SDS011;56311;50.298;8.514;2023-07-13T03:30:00;6.9;;;1.1;;
69197;SDS011;56311;50.298;8.514;2023-07-13T03:32:00;4.1;;;0.8;;
69197;SDS011;56311;50.298;8.514;2023-07-13T03:34:00;4.4;;;0.8;;
69197;SDS011;56311;50.298;8.514;2023-07-13T03:36:01;5.1;;;1.0;;
69197;SDS011;56311;50.298;8.514;2023-07-13T03:38:00;5.4;;;1.1;;
69197;SDS011;56311;50.298;8.514;2023-07-13T03:40:00;4.4;;;0.9;;
69197;SDS011;56311;50.298;8.514;2023-07-13T03:42:00;5.0;;;0.9;;
69197;SDS011;56311;50.298;8.514;2023-07-13T03:44:00;6.1;;;0.9;;
69197;SDS011;56311;50.298;8.514;2023-07-13T03:46:00;5.0;;;0.9;;
69197;SDS011;56311;50.298;8.514;2023-07-13T03:48:00;5.8;;;1.3;;
69197;SDS011;56311;50.298;8.514;2023-07-13T03:50:00;5.6;;;1.0;;
69197;SDS011;56311;50.298;8.514;2023-07-13T03:52:00;5.2;;;1.0;;
69197;SDS011;56311;50.298;8.514;2023-07-13T03:54:00;7.8;;;0.9;;
69197;SDS011;56311;50.298;8.514;2023-07-13T03:56:00;6.3;;;1.0;;
69197;SDS011;56311;50.298;8.514;2023-07-13T03:58:01;4.9;;;0.9;;
69197;SDS011;56311;50.298;8.514;2023-07-13T04:00:00;3.8;;;0.8;;
69197;SDS011;56311;50.298;8.514;2023-07-13T04:02:00;3.6;;;0.7;;
69197;SDS011;56311;50.298;8.514;2023-07-13T04:04:00;5.8;;;1.1;;
69197;SDS011;56311;50.298;8.514;2023-07-13T04:06:01;5.9;;;1.0;;
69197;SDS011;56311;50.298;8.514;2023-07-13T04:08:01;5.5;;;1.1;;
69197;SDS011;56311;50.298;8.514;2023-07-13T04:10:00;4.7;;;1.1;;
69197;SDS011;56311;50.298;8.514;2023-07-13T04:12:00;5.0;;;1.2;;
69197;SDS011;56311;50.298;8.514;2023-07-13T04:14:00;4.1;;;1.1;;
69197;SDS011;56311;50.298;8.514;2023-07-13T04:16:00;6.0;;;1.1;;
69197;SDS011;56311;50.298;8.514;2023-07-13T04:18:00;5.0;;;0.9;;
69197;SDS011;56311;50.298;8.514;2023-07-13T04:20:01;4.6;;;0.9;;
69197;SDS011;56311;50.298;8.514;2023-07-13T04:22:00;6.0;;;1.1;;
69197;SDS011;56311;50.298;8.514;2023-07-13T04:24:00;5.0;;;1.0;;
69197;SDS011;56311;50.298;8.514;2023-07-13T04:26:00;6.5;;;1.0;;
69197;SDS011;56311;50.298;8.514;2023-07-13T04:28:00;5.4;;;1.0;;
69197;SDS011;56311;50.298;8.514;2023-07-13T04:30:00;5.8;;;1.0;;
69197;SDS011;56311;50.298;8.514;2023-07-13T04:32:00;6.0;;;1.1;;
69197;SDS011;56311;50.298;8.514;2023-07-13T04:34:00;4.0;;;1.0;;
69197;SDS011;56311;50.298;8.514;2023-07-13T04:36:00;5.5;;;1.2;;
69197;SDS011;56311;50.298;8.514;2023-07-13T04:38:00;6.5;;;1.1;;
69197;SDS011;56311;50.298;8.514;2023-07-13T04:40:00;4.7;;;0.9;;
69197;SDS011;56311;50.298;8.514;2023-07-13T04:42:00;5.7;;;1.2;;
69197;SDS011;56311;50.298;8.514;2023-07-13T04:44:00;4.8;;;0.9;;
69197;SDS011;56311;50.298;8.514;2023-07-13T04:46:03;7.2;;;1.1;;
69197;SDS011;56311;50.298;8.514;2023-07-13T04:48:00;6.7;;;0.9;;
69197;SDS011;56311;50.298;8.514;2023-07-13T04:50:00;5.6;;;1.0;;
69197;SDS011;56311;50.298;8.514;2023-07-13T04:52:00;4.4;;;0.9;;
69197;SDS011;56311;50.298;8.514;2023-07-13T04:54:00;4.6;;;0.8;;
69197;SDS011;56311;50.298;8.514;2023-07-13T04:56:00;5.2;;;1.0;;
69197;SDS011;56311;50.298;8.514;2023-07-13T04:58:00;5.2;;;0.9;;
69197;SDS011;56311;50.298;8.514;2023-07-13T05:00:00;5.4;;;0.9;;
69197;SDS011;56311;50.298;8.514;2023-07-13T05:02:00;5.4;;;1.0;;
69197;SDS011;56311;50.298;8.514;2023-07-13T05:04:00;5.4;;;0.8;;
69197;SDS011;56311;50.298;8.514;2023-07-13T05:06:01;5.1;;;0.8;;
69197;SDS011;56311;50.298;8.514;2023-07-13T05:08:00;5.9;;;0.8;;
69197;SDS011;56311;50.298;8.514;2023-07-13T05:10:00;7.2;;;1.2;;
69197;SDS011;56311;50.298;8.514;2023-07-13T05:12:00;4.8;;;0.9;;
69197;SDS011;56311;50.298;8.514;2023-07-13T05:14:00;3.2;;;0.8;;
69197;SDS011;56311;50.298;8.514;2023-07-13T05:16:01;6.5;;;1.0;;
69197;SDS011;56311;50.298;8.514;2023-07-13T05:18:00;3.9;;;0.7;;
69197;SDS011;56311;50.298;8.514;2023-07-13T05:20:00;6.1;;;0.9;;
69197;SDS011;56311;50.298;8.514;2023-07-13T05:22:00;3.9;;;0.8;;
69197;SDS011;56311;50.298;8.514;2023-07-13T05:24:00;6.7;;;0.9;;
69197;SDS011;56311;50.298;8.514;2023-07-13T05:26:00;6.4;;;1.0;;
69197;SDS011;56311;50.298;8.514;2023-07-13T05:28:00;5.8;;;0.8;;
69197;SDS011;56311;50.298;8.514;2023-07-13T05:30:00;3.0;;;0.8;;
69197;SDS011;56311;50.298;8.514;2023-07-13T05:32:00;3.2;;;0.7;;
69197;SDS011;56311;50.298;8.514;2023-07-13T05:34:00;3.5;;;0.7;;
69197;SDS011;56311;50.298;8.514;2023-07-13T05:36:00;6.1;;;0.9;;
69197;SDS011;56311;50.298;8.514;2023-07-13T05:38:00;5.0;;;1.1;;
69197;SDS011;56311;50.298;8.514;2023-07-13T05:40:00;6.2;;;1.0;;
69197;SDS011;56311;50.298;8.514;2023-07-13T05:42:01;3.6;;;0.8;;
69197;SDS011;56311;50.298;8.514;2023-07-13T05:44:00;6.2;;;0.9;;
69197;SDS011;56311;50.298;8.514;2023-07-13T05:46:00;5.6;;;1.1;;
69197;SDS011;56311;50.298;8.514;2023-07-13T05:48:00;3.9;;;0.8;;
69197;SDS011;56311;50.298;8.514;2023-07-13T05:50:00;4.5;;;0.8;;
69197;SDS011;56311;50.298;8.514;2023-07-13T05:52:00;4.0;;;0.9;;
69197;SDS011;56311;50.298;8.514;2023-07-13T05:54:00;4.2;;;0.8;;
69197;SDS011;56311;50.298;8.514;2023-07-13T05:56:00;4.3;;;0.9;;
69197;SDS011;56311;50.298;8.514;2023-07-13T05:58:00;4.2;;;0.7;;
69197;SDS011;56311;50.298;8.514;2023-07-13T06:00:00;3.5;;;0.7;;
69197;SDS011;56311;50.298;8.514;2023-07-13T06:02:00;3.9;;;0.7;;
69197;SDS011;56311;50.298;8.514;2023-07-13T06:04:00;3.5;;;0.7;;
69197;SDS011;56311;50.298;8.514;2023-07-13T06:06:00;4.6;;;0.7;;
69197;SDS011;56311;50.298;8.514;2023-07-13T06:08:00;4.6;;;0.8;;
69197;SDS011;56311;50.298;8.514;2023-07-13T06:10:00;3.6;;;0.7;;
69197;SDS011;56311;50.298;8.514;2023-07-13T06:12:00;4.0;;;0.8;;
69197;SDS011;56311;50.298;8.514;2023-07-13T06:14:00;4.3;;;0.7;;
69197;SDS011;56311;50.298;8.514;2023-07-13T06:16:00;4.6;;;0.8;;
69197;SDS011;56311;50.298;8.514;2023-07-13T06:18:00;7.9;;;1.2;;
69197;SDS011;56311;50.298;8.514;2023-07-13T06:20:00;3.8;;;0.6;;
69197;SDS011;56311;50.298;8.514;2023-07-13T06:22:00;8.9;;;1.3;;
69197;SDS011;56311;50.298;8.514;2023-07-13T06:24:00;18.1;;;2.2;;
69197;SDS011;56311;50.298;8.514;2023-07-13T06:26:00;10.7;;;2.0;;
69197;SDS011;56311;50.298;8.514;2023-07-13T06:28:00;5.0;;;0.8;;
69197;SDS011;56311;50.298;8.514;2023-07-13T06:30:01;3.2;;;0.6;;
69197;SDS011;56311;50.298;8.514;2023-07-13T06:32:00;3.8;;;0.6;;
69197;SDS011;56311;50.298;8.514;2023-07-13T06:34:00;4.7;;;0.6;;
69197;SDS011;56311;50.298;8.514;2023-07-13T06:36:01;4.7;;;0.6;;
69197;SDS011;56311;50.298;8.514;2023-07-13T06:38:00;2.8;;;0.6;;
69197;SDS011;56311;50.298;8.514;2023-07-13T06:40:00;4.1;;;0.7;;
69197;SDS011;56311;50.298;8.514;2023-07-13T06:42:00;2.8;;;0.5;;
69197;SDS011;56311;50.298;8.514;2023-07-13T06:44:00;2.5;;;0.5;;
69197;SDS011;56311;50.298;8.514;2023-07-13T06:46:00;3.6;;;0.7;;
69197;SDS011;56311;50.298;8.514;2023-07-13T06:48:00;2.5;;;0.5;;
69197;SDS011;56311;50.298;8.514;2023-07-13T06:50:00;3.9;;;0.6;;
69197;SDS011;56311;50.298;8.514;2023-07-13T06:52:00;3.7;;;0.7;;
69197;SDS011;56311;50.298;8.514;2023-07-13T06:54:00;2.7;;;0.5;;
69197;SDS011;56311;50.298;8.514;2023-07-13T06:56:00;2.4;;;0.5;;
69197;SDS011;56311;50.298;8.514;2023-07-13T06:58:00;3.8;;;0.7;;
69197;SDS011;56311;50.298;8.514;2023-07-13T07:00:00;3.9;;;0.7;;
69197;SDS011;56311;50.298;8.514;2023-07-13T07:02:00;2.8;;;0.6;;
69197;SDS011;56311;50.298;8.514;2023-07-13T07:04:00;3.6;;;0.8;;
69197;SDS011;56311;50.298;8.514;2023-07-13T07:06:00;3.7;;;0.7;;
69197;SDS011;56311;50.298;8.514;2023-07-13T07:08:00;3.3;;;0.6;;
69197;SDS011;56311;50.298;8.514;2023-07-13T07:10:00;3.5;;;0.8;;
69197;SDS011;56311;50.298;8.514;2023-07-13T07:12:00;2.9;;;0.7;;
69197;SDS011;56311;50.298;8.514;2023-07-13T07:14:00;3.8;;;0.7;;
69197;SDS011;56311;50.298;8.514;2023-07-13T07:16:00;2.5;;;0.6;;
69197;SDS011;56311;50.298;8.514;2023-07-13T07:18:00;2.8;;;0.5;;
69197;SDS011;56311;50.298;8.514;2023-07-13T07:20:00;2.6;;;0.5;;
69197;SDS011;56311;50.298;8.514;2023-07-13T07:22:01;3.0;;;0.5;;
69197;SDS011;56311;50.298;8.514;2023-07-13T07:24:00;3.4;;;0.6;;
69197;SDS011;56311;50.298;8.514;2023-07-13T07:26:00;3.4;;;0.6;;
69197;SDS011;56311;50.298;8.514;2023-07-13T07:28:00;3.2;;;0.6;;
69197;SDS011;56311;50.298;8.514;2023-07-13T07:30:00;3.8;;;0.6;;
69197;SDS011;56311;50.298;8.514;2023-07-13T07:32:00;3.4;;;0.6;;
69197;SDS011;56311;50.298;8.514;2023-07-13T07:34:00;4.2;;;0.6;;
69197;SDS011;56311;50.298;8.514;2023-07-13T07:36:00;3.2;;;0.6;;
69197;SDS011;56311;50.298;8.514;2023-07-13T07:38:00;3.2;;;0.5;;
69197;SDS011;56311;50.298;8.514;2023-07-13T07:40:00;3.0;;;0.6;;
69197;SDS011;56311;50.298;8.514;2023-07-13T07:42:00;3.8;;;0.7;;
69197;SDS011;56311;50.298;8.514;2023-07-13T07:44:00;3.4;;;0.7;;
69197;SDS011;56311;50.298;8.514;2023-07-13T07:46:00;4.0;;;0.7;;
69197;SDS011;56311;50.298;8.514;2023-07-13T07:48:00;2.3;;;0.5;;
69197;SDS011;56311;50.298;8.514;2023-07-13T07:50:00;2.9;;;0.6;;
69197;SDS011;56311;50.298;8.514;2023-07-13T07:52:00;3.1;;;0.7;;
69197;SDS011;56311;50.298;8.514;2023-07-13T07:54:00;2.4;;;0.5;;
69197;SDS011;56311;50.298;8.514;2023-07-13T07:56:00;3.8;;;0.5;;
69197;SDS011;56311;50.298;8.514;2023-07-13T07:58:00;2.9;;;0.7;;
69197;SDS011;56311;50.298;8.514;2023-07-13T08:00:00;2.6;;;0.5;;
69197;SDS011;56311;50.298;8.514;2023-07-13T08:02:00;2.4;;;0.5;;
69197;SDS011;56311;50.298;8.514;2023-07-13T08:04:00;3.4;;;0.7;;
69197;SDS011;56311;50.298;8.514;2023-07-13T08:06:01;2.3;;;0.5;;
69197;SDS011;56311;50.298;8.514;2023-07-13T08:08:00;3.2;;;0.6;;
69197;SDS011;56311;50.298;8.514;2023-07-13T08:10:00;3.5;;;0.7;;
69197;SDS011;56311;50.298;8.514;2023-07-13T08:12:00;3.2;;;0.6;;
69197;SDS011;56311;50.298;8.514;2023-07-13T08:14:00;3.0;;;0.6;;
69197;SDS011;56311;50.298;8.514;2023-07-13T08:16:00;2.4;;;0.5;;
69197;SDS011;56311;50.298;8.514;2023-07-13T08:18:00;3.6;;;0.8;;
69197;SDS011;56311;50.298;8.514;2023-07-13T08:20:00;2.8;;;0.8;;
69197;SDS011;56311;50.298;8.514;2023-07-13T08:22:00;3.7;;;0.7;;
69197;SDS011;56311;50.298;8.514;2023-07-13T08:24:00;4.2;;;0.6;;
69197;SDS011;56311;50.298;8.514;2023-07-13T08:26:01;3.4;;;0.6;;
69197;SDS011;56311;50.298;8.514;2023-07-13T08:28:00;2.9;;;0.6;;
69197;SDS011;56311;50.298;8.514;2023-07-13T08:30:00;4.3;;;0.7;;
69197;SDS011;56311;50.298;8.514;2023-07-13T08:32:00;4.4;;;0.6;;
69197;SDS011;56311;50.298;8.514;2023-07-13T08:34:00;3.9;;;0.6;;
69197;SDS011;56311;50.298;8.514;2023-07-13T08:36:00;5.1;;;0.7;;
69197;SDS011;56311;50.298;8.514;2023-07-13T08:38:00;2.7;;;0.6;;
69197;SDS011;56311;50.298;8.514;2023-07-13T08:40:00;3.7;;;0.6;;
69197;SDS011;56311;50.298;8.514;2023-07-13T08:42:01;3.5;;;0.7;;
69197;SDS011;56311;50.298;8.514;2023-07-13T08:44:00;3.7;;;0.7;;
69197;SDS011;56311;50.298;8.514;2023-07-13T08:46:02;5.0;;;0.8;;
69197;SDS011;56311;50.298;8.514;2023-07-13T08:48:01;5.5;;;0.8;;
69197;SDS011;56311;50.298;8.514;2023-07-13T08:50:00;6.2;;;2.6;;
69197;SDS011;56311;50.298;8.514;2023-07-13T08:52:01;3.8;;;1.0;;
69197;SDS011;56311;50.298;8.514;2023-07-13T08:54:00;4.6;;;1.0;;
69197;SDS011;56311;50.298;8.514;2023-07-13T08:56:00;2.5;;;0.5;;
69197;SDS011;56311;50.298;8.514;2023-07-13T08:58:03;4.5;;;0.5;;
69197;SDS011;56311;50.298;8.514;2023-07-13T09:00:00;3.4;;;0.6;;
69197;SDS011;56311;50.298;8.514;2023-07-13T09:02:08;2.7;;;0.5;;
69197;SDS011;56311;50.298;8.514;2023-07-13T09:04:05;3.4;;;0.5;;
69197;SDS011;56311;50.298;8.514;2023-07-13T09:06:01;3.2;;;0.6;;
69197;SDS011;56311;50.298;8.514;2023-07-13T09:08:02;4.2;;;0.6;;
69197;SDS011;56311;50.298;8.514;2023-07-13T09:10:04;4.6;;;0.7;;
69197;SDS011;56311;50.298;8.514;2023-07-13T09:12:01;2.5;;;0.5;;
69197;SDS011;56311;50.298;8.514;2023-07-13T09:14:03;2.7;;;0.6;;
69197;SDS011;56311;50.298;8.514;2023-07-13T09:16:00;2.6;;;0.5;;
69197;SDS011;56311;50.298;8.514;2023-07-13T09:18:02;3.0;;;0.5;;
69197;SDS011;56311;50.298;8.514;2023-07-13T09:20:02;2.9;;;0.6;;
69197;SDS011;56311;50.298;8.514;2023-07-13T09:22:01;2.6;;;0.5;;
69197;SDS011;56311;50.298;8.514;2023-07-13T09:24:12;3.8;;;0.5;;
69197;SDS011;56311;50.298;8.514;2023-07-13T09:26:01;2.6;;;0.5;;
69197;SDS011;56311;50.298;8.514;2023-07-13T09:28:02;2.7;;;0.6;;
69197;SDS011;56311;50.298;8.514;2023-07-13T09:30:02;4.8;;;0.6;;
69197;SDS011;56311;50.298;8.514;2023-07-13T09:32:02;2.6;;;0.7;;
69197;SDS011;56311;50.298;8.514;2023-07-13T09:34:00;3.8;;;0.6;;
69197;SDS011;56311;50.298;8.514;2023-07-13T09:36:00;2.6;;;0.6;;
69197;SDS011;56311;50.298;8.514;2023-07-13T09:38:03;4.8;;;0.6;;
69197;SDS011;56311;50.298;8.514;2023-07-13T09:40:01;3.9;;;0.7;;
69197;SDS011;56311;50.298;8.514;2023-07-13T09:42:01;2.3;;;0.5;;
69197;SDS011;56311;50.298;8.514;2023-07-13T09:44:01;4.2;;;0.6;;
69197;SDS011;56311;50.298;8.514;2023-07-13T09:46:00;3.7;;;0.8;;
69197;SDS011;56311;50.298;8.514;2023-07-13T09:48:04;2.6;;;0.6;;
69197;SDS011;56311;50.298;8.514;2023-07-13T09:50:01;3.1;;;0.7;;
69197;SDS011;56311;50.298;8.514;2023-07-13T09:52:01;2.8;;;0.6;;
69197;SDS011;56311;50.298;8.514;2023-07-13T09:54:00;4.7;;;0.7;;
69197;SDS011;56311;50.298;8.514;2023-07-13T09:56:00;4.3;;;0.5;;
69197;SDS011;56311;50.298;8.514;2023-07-13T09:58:04;2.7;;;0.8;;
69197;SDS011;56311;50.298;8.514;2023-07-13T10:00:00;6.4;;;3.6;;
69197;SDS011;56311;50.298;8.514;2023-07-13T10:02:00;3.6;;;1.2;;
69197;SDS011;56311;50.298;8.514;2023-07-13T10:04:00;3.8;;;0.7;;
69197;SDS011;56311;50.298;8.514;2023-07-13T10:06:01;3.2;;;0.6;;
69197;SDS011;56311;50.298;8.514;2023-07-13T10:08:00;3.7;;;0.6;;
69197;SDS011;56311;50.298;8.514;2023-07-13T10:10:01;2.8;;;0.6;;
69197;SDS011;56311;50.298;8.514;2023-07-13T10:12:00;3.4;;;0.7;;
69197;SDS011;56311;50.298;8.514;2023-07-13T10:14:01;3.2;;;0.7;;
69197;SDS011;56311;50.298;8.514;2023-07-13T10:16:00;3.0;;;0.7;;
69197;SDS011;56311;50.298;8.514;2023-07-13T10:18:00;3.1;;;0.6;;
69197;SDS011;56311;50.298;8.514;2023-07-13T10:20:01;3.5;;;0.7;;
69197;SDS011;56311;50.298;8.514;2023-07-13T10:22:01;3.0;;;0.7;;
69197;SDS011;56311;50.298;8.514;2023-07-13T10:24:02;3.7;;;0.7;;
69197;SDS011;56311;50.298;8.514;2023-07-13T10:26:00;3.5;;;0.7;;
69197;SDS011;56311;50.298;8.514;2023-07-13T10:28:02;2.2;;;0.7;;
69197;SDS011;56311;50.298;8.514;2023-07-13T10:30:01;3.5;;;0.6;;
69197;SDS011;56311;50.298;8.514;2023-07-13T10:32:00;4.8;;;0.9;;
69197;SDS011;56311;50.298;8.514;2023-07-13T10:34:00;3.0;;;0.7;;
69197;SDS011;56311;50.298;8.514;2023-07-13T10:36:01;2.2;;;0.6;;
69197;SDS011;56311;50.298;8.514;2023-07-13T10:38:01;2.5;;;0.6;;
69197;SDS011;56311;50.298;8.514;2023-07-13T10:40:00;4.2;;;0.8;;
69197;SDS011;56311;50.298;8.514;2023-07-13T10:42:01;3.2;;;0.7;;
69197;SDS011;56311;50.298;8.514;2023-07-13T10:44:00;3.2;;;0.8;;
69197;SDS011;56311;50.298;8.514;2023-07-13T10:46:00;3.7;;;0.8;;
69197;SDS011;56311;50.298;8.514;2023-07-13T10:48:00;3.3;;;0.8;;
69197;SDS011;56311;50.298;8.514;2023-07-13T10:50:00;2.9;;;0.7;;
69197;SDS011;56311;50.298;8.514;2023-07-13T10:52:00;4.1;;;0.8;;
69197;SDS011;56311;50.298;8.514;2023-07-13T10:56:01;3.7;;;0.8;;
69197;SDS011;56311;50.298;8.514;2023-07-13T10:58:01;4.4;;;1.0;;
69197;SDS011;56311;50.298;8.514;2023-07-13T11:02:09;3.9;;;0.8;;
69197;SDS011;56311;50.298;8.514;2023-07-13T11:04:01;3.5;;;0.8;;
69197;SDS011;56311;50.298;8.514;2023-07-13T11:06:05;4.5;;;0.8;;
69197;SDS011;56311;50.298;8.514;2023-07-13T11:08:12;4.6;;;0.8;;
69197;SDS011;56311;50.298;8.514;2023-07-13T11:10:03;5.6;;;3.1;;
69197;SDS011;56311;50.298;8.514;2023-07-13T11:12:00;15.2;;;11.7;;
69197;SDS011;56311;50.298;8.514;2023-07-13T11:14:01;10.3;;;5.7;;
69197;SDS011;56311;50.298;8.514;2023-07-13T11:16:00;4.5;;;1.0;;
69197;SDS011;56311;50.298;8.514;2023-07-13T11:18:03;3.9;;;0.9;;
69197;SDS011;56311;50.298;8.514;2023-07-13T11:20:08;3.8;;;0.9;;
69197;SDS011;56311;50.298;8.514;2023-07-13T11:22:02;3.0;;;0.9;;
69197;SDS011;56311;50.298;8.514;2023-07-13T11:24:03;4.3;;;0.8;;
69197;SDS011;56311;50.298;8.514;2023-07-13T11:26:00;4.5;;;1.0;;
69197;SDS011;56311;50.298;8.514;2023-07-13T11:28:05;5.5;;;1.1;;
69197;SDS011;56311;50.298;8.514;2023-07-13T11:30:09;3.8;;;0.9;;
69197;SDS011;56311;50.298;8.514;2023-07-13T11:32:00;4.9;;;0.9;;
69197;SDS011;56311;50.298;8.514;2023-07-13T11:34:00;3.5;;;0.9;;
69197;SDS011;56311;50.298;8.514;2023-07-13T11:36:04;3.5;;;0.9;;
69197;SDS011;56311;50.298;8.514;2023-07-13T11:38:00;2.6;;;0.8;;
69197;SDS011;56311;50.298;8.514;2023-07-13T11:40:00;3.9;;;0.7;;
69197;SDS011;56311;50.298;8.514;2023-07-13T11:42:00;4.5;;;0.9;;
69197;SDS011;56311;50.298;8.514;2023-07-13T11:44:04;4.7;;;1.0;;
69197;SDS011;56311;50.298;8.514;2023-07-13T11:48:01;3.3;;;0.8;;
69197;SDS011;56311;50.298;8.514;2023-07-13T11:50:00;3.0;;;0.7;;
69197;SDS011;56311;50.298;8.514;2023-07-13T11:52:00;3.6;;;0.9;;
69197;SDS011;56311;50.298;8.514;2023-07-13T11:54:01;3.0;;;0.7;;
69197;SDS011;56311;50.298;8.514;2023-07-13T11:56:00;4.5;;;0.8;;
69197;SDS011;56311;50.298;8.514;2023-07-13T11:58:00;3.1;;;0.7;;
69197;SDS011;56311;50.298;8.514;2023-07-13T12:00:00;3.6;;;0.8;;
69197;SDS011;56311;50.298;8.514;2023-07-13T12:02:00;3.5;;;1.0;;
69197;SDS011;56311;50.298;8.514;2023-07-13T12:04:01;3.4;;;0.9;;
69197;SDS011;56311;50.298;8.514;2023-07-13T12:06:01;3.3;;;0.8;;
69197;SDS011;56311;50.298;8.514;2023-07-13T12:08:00;3.6;;;0.9;;
69197;SDS011;56311;50.298;8.514;2023-07-13T12:10:00;4.4;;;0.8;;
69197;SDS011;56311;50.298;8.514;2023-07-13T12:12:00;3.3;;;0.9;;
69197;SDS011;56311;50.298;8.514;2023-07-13T12:14:00;3.8;;;0.8;;
69197;SDS011;56311;50.298;8.514;2023-07-13T12:16:00;3.5;;;0.8;;
69197;SDS011;56311;50.298;8.514;2023-07-13T12:18:00;3.1;;;0.7;;
69197;SDS011;56311;50.298;8.514;2023-07-13T12:20:00;2.8;;;0.7;;
69197;SDS011;56311;50.298;8.514;2023-07-13T12:22:00;4.7;;;0.9;;
69197;SDS011;56311;50.298;8.514;2023-07-13T12:24:00;4.3;;;0.9;;
69197;SDS011;56311;50.298;8.514;2023-07-13T12:26:01;4.1;;;0.9;;
69197;SDS011;56311;50.298;8.514;2023-07-13T12:28:00;3.4;;;0.8;;
69197;SDS011;56311;50.298;8.514;2023-07-13T12:30:02;3.2;;;0.8;;
69197;SDS011;56311;50.298;8.514;2023-07-13T12:32:00;4.1;;;0.8;;